Neville Island, Pennsylvania
Current Conditions -  °F | °C
As of 8:51 AM on Thursday 18 Dec 2014 (Local Time) from KPIT Reporting Station
Overcast Overcast  
Wind Chill: 20°   Ceiling: 2400
Heat Index: 28°   Visibility: 9mi
Dew Point: 21°   Wind: 8mph
Humidity: 75%   Direction: 250°WSW
Pressure: 30.18"   Gusts: NA
Location:  40.5051°N, 80.1093°W
Report Text: KPIT 181351Z 25007KT 9SM FEW016 OVC024 M02/M06 A3018 RMK AO2 SLP242 T10221061
Loading
Personal Weather Stations






























Interactive Weather Map New forecast layout! Learn more

10-Day Weather Forecast

Advertisements
Track Severe Weather on mobile